Time;durP1;ratioP1;P1;durP2;ratioP2;P2;SDS_P1;SDS_P2;PMS_P1;PMS_P2;Temp;Humidity;BMP_temperature;BMP_pressure;BME280_temperature;BME280_humidity;BME280_pressure;Samples;Min_cycle;Max_cycle;Signal;HPM_P1;HPM_P2
2021/01/19 00:02:05;;;;;;;6.00;5.40;;;5.00;94.30;;;;;;5111229;28;20639;-59
2021/01/19 00:04:31;;;;;;;6.80;5.23;;;5.00;92.00;;;;;;5111495;28;20178;-60
2021/01/19 00:06:56;;;;;;;6.27;4.90;;;4.90;93.70;;;;;;5108062;28;20199;-59
2021/01/19 00:09:22;;;;;;;6.27;5.47;;;5.00;97.10;;;;;;5107242;28;20186;-60
2021/01/19 00:11:47;;;;;;;6.73;6.03;;;5.10;93.20;;;;;;5110836;28;20236;-59
2021/01/19 00:14:13;;;;;;;7.10;5.20;;;5.00;89.10;;;;;;5111275;28;20177;-59
2021/01/19 00:16:39;;;;;;;4.70;4.20;;;5.10;90.60;;;;;;5131913;27;20538;-59
2021/01/19 00:19:04;;;;;;;8.37;5.13;;;5.30;55.10;;;;;;5131871;27;20184;-59
2021/01/19 00:21:30;;;;;;;6.63;4.93;;;5.20;55.30;;;;;;5132033;27;20192;-58
2021/01/19 00:23:55;;;;;;;5.40;4.40;;;5.20;47.70;;;;;;5125912;27;20193;-58
2021/01/19 00:26:21;;;;;;;5.03;4.50;;;5.20;45.10;;;;;;5111157;28;20589;-58
2021/01/19 00:28:46;;;;;;;4.90;4.30;;;5.20;39.50;;;;;;5109791;28;20280;-59
2021/01/19 00:31:12;;;;;;;4.90;4.40;;;5.20;35.80;;;;;;5109634;28;20234;-58
2021/01/19 00:33:38;;;;;;;5.00;3.90;;;;;;;;;;5108978;28;20463;-61
2021/01/19 00:36:04;;;;;;;5.07;4.03;;;5.30;22.00;;;;;;5114316;27;20185;-59
2021/01/19 00:38:30;;;;;;;3.87;3.57;;;5.30;21.70;;;;;;5118100;27;20915;-59
2021/01/19 00:40:55;;;;;;;5.70;4.80;;;5.40;11.00;;;;;;5116737;27;20458;-59
2021/01/19 00:43:21;;;;;;;5.20;4.37;;;5.40;6.70;;;;;;5118412;27;20527;-58
2021/01/19 00:45:46;;;;;;;4.87;4.37;;;5.40;1.60;;;;;;5115956;27;20205;-61
2021/01/19 00:48:12;;;;;;;4.27;3.87;;;5.40;1.00;;;;;;5118152;27;20186;-59
2021/01/19 00:50:38;;;;;;;4.70;4.30;;;5.40;1.00;;;;;;5118118;27;20192;-59
2021/01/19 00:53:03;;;;;;;4.63;3.93;;;5.30;1.00;;;;;;5117866;27;20192;-58
2021/01/19 00:55:29;;;;;;;4.93;4.40;;;5.40;1.00;;;;;;5118128;27;20531;-59
2021/01/19 00:57:55;;;;;;;5.47;4.07;;;5.50;1.00;;;;;;5117712;27;20197;-59
2021/01/19 01:00:21;;;;;;;5.80;4.63;;;5.60;1.00;;;;;;5117428;27;20263;-59
2021/01/19 01:02:47;;;;;;;4.50;3.70;;;5.60;1.00;;;;;;5115497;27;20282;-58
2021/01/19 01:05:13;;;;;;;4.67;3.80;;;;;;;;;;5117075;27;20431;-59
2021/01/19 01:07:41;;;;;;;4.50;4.10;;;5.50;1.00;;;;;;5117907;27;20213;-60
2021/01/19 01:10:11;;;;;;;4.40;4.00;;;5.50;1.00;;;;;;5114977;27;20552;-59
2021/01/19 01:12:38;;;;;;;3.83;3.43;;;5.40;1.00;;;;;;5116970;27;20491;-60
2021/01/19 01:15:05;;;;;;;6.90;4.03;;;5.50;1.00;;;;;;5116172;27;20436;-59
2021/01/19 01:17:38;;;;;;;3.83;3.50;;;5.50;1.00;;;;;;5112940;27;20435;-58
2021/01/19 01:20:06;;;;;;;3.93;3.53;;;5.50;1.00;;;;;;5110517;27;20467;-58
2021/01/19 01:22:41;;;;;;;4.10;3.70;;;5.50;1.00;;;;;;5111157;27;20527;-59
2021/01/19 01:25:09;;;;;;;4.40;4.00;;;5.50;1.00;;;;;;5115074;27;20782;-59
2021/01/19 01:27:34;;;;;;;4.37;3.80;;;5.50;1.00;;;;;;5116446;27;20449;-59
2021/01/19 01:30:00;;;;;;;3.90;3.50;;;5.50;1.00;;;;;;5117724;27;20522;-58
2021/01/19 01:32:26;;;;;;;4.13;3.63;;;5.40;1.00;;;;;;5116782;27;20307;-59
2021/01/19 01:34:51;;;;;;;4.10;3.13;;;5.50;1.00;;;;;;5116536;27;20184;-59
2021/01/19 01:37:17;;;;;;;4.60;3.87;;;5.50;1.00;;;;;;5113161;27;20189;-59
2021/01/19 01:39:42;;;;;;;4.17;3.87;;;5.50;1.00;;;;;;5112937;27;20186;-59
2021/01/19 01:42:20;;;;;;;3.57;3.27;;;5.50;1.00;;;;;;5113000;27;20189;-60
2021/01/19 01:44:47;;;;;;;4.10;3.33;;;5.50;1.00;;;;;;5111742;27;20527;-60
2021/01/19 01:47:19;;;;;;;3.47;3.17;;;5.50;1.00;;;;;;5111732;27;20963;-59
2021/01/19 01:49:45;;;;;;;3.40;3.10;;;5.50;1.00;;;;;;5114669;27;20431;-59
2021/01/19 01:52:11;;;;;;;6.30;3.60;;;5.50;1.00;;;;;;5113843;28;21001;-58
2021/01/19 01:54:37;;;;;;;3.03;2.73;;;5.50;1.00;;;;;;5112283;28;20450;-59
2021/01/19 01:57:05;;;;;;;4.40;3.47;;;5.60;1.00;;;;;;5108976;28;20514;-58
2021/01/19 01:59:32;;;;;;;2.90;2.70;;;5.60;1.00;;;;;;5108268;28;20510;-59
2021/01/19 02:02:07;;;;;;;3.33;3.03;;;5.60;1.00;;;;;;5113042;28;20796;-59
2021/01/19 02:04:33;;;;;;;3.83;3.53;;;5.60;1.00;;;;;;5111433;28;20889;-59
2021/01/19 02:07:03;;;;;;;3.40;3.10;;;5.60;1.00;;;;;;5114291;28;20535;-59
2021/01/19 02:09:33;;;;;;;3.83;3.47;;;5.60;1.00;;;;;;5113173;28;20185;-58
2021/01/19 02:12:07;;;;;;;4.20;3.20;;;5.50;1.00;;;;;;5113243;27;21164;-59
2021/01/19 02:14:40;;;;;;;3.40;3.00;;;5.60;1.00;;;;;;5113294;28;20518;-59
2021/01/19 02:17:27;;;;;;;3.60;3.30;;;5.50;1.00;;;;;;5113231;28;20478;-59
2021/01/19 02:20:13;;;;;;;3.03;2.77;;;5.50;1.00;;;;;;5113757;28;20455;-59
2021/01/19 02:22:57;;;;;;;3.60;3.30;;;8.00;1.00;;;;;;5113704;28;20431;-59
2021/01/19 02:25:25;;;;;;;3.30;3.00;;;5.60;1.00;;;;;;5113173;28;20436;-59
2021/01/19 02:28:06;;;;;;;4.10;3.20;;;5.50;1.00;;;;;;5112279;28;20500;-59
2021/01/19 02:30:50;;;;;;;3.80;3.50;;;5.50;1.00;;;;;;5112927;28;20450;-58
2021/01/19 02:33:32;;;;;;;3.30;2.97;;;5.50;1.00;;;;;;5108064;28;20478;-59
2021/01/19 02:36:19;;;;;;;2.97;2.73;;;5.60;1.00;;;;;;5107961;28;20792;-58
2021/01/19 02:38:56;;;;;;;3.30;2.97;;;5.60;1.00;;;;;;5107711;28;20443;-59
2021/01/19 02:41:23;;;;;;;3.50;3.20;;;5.70;1.00;;;;;;5107491;28;20435;-59
2021/01/19 02:43:57;;;;;;;3.60;3.30;;;5.60;1.00;;;;;;5110667;28;20431;-59
2021/01/19 02:46:25;;;;;;;3.07;2.87;;;5.60;1.00;;;;;;5112344;28;20432;-59
2021/01/19 02:48:51;;;;;;;3.43;3.13;;;5.70;1.00;;;;;;5109059;28;20436;-59
2021/01/19 02:51:17;;;;;;;3.90;3.50;;;5.70;1.00;;;;;;5111260;28;20464;-60
2021/01/19 02:53:43;;;;;;;3.30;3.00;;;5.80;1.00;;;;;;5113026;28;20964;-60
2021/01/19 02:56:18;;;;;;;3.20;2.90;;;5.70;1.00;;;;;;5112515;28;20756;-59
2021/01/19 02:59:06;;;;;;;3.90;2.90;;;5.70;1.00;;;;;;5108777;27;20562;-59
2021/01/19 03:01:41;;;;;;;4.23;3.10;;;5.70;1.00;;;;;;5107157;28;20467;-59
2021/01/19 03:04:09;;;;;;;3.40;3.10;;;5.70;1.00;;;;;;5110952;28;20477;-58
2021/01/19 03:06:35;;;;;;;3.20;2.90;;;5.70;1.00;;;;;;5112338;27;20440;-58
2021/01/19 03:09:02;;;;;;;3.40;3.03;;;5.80;1.00;;;;;;5109818;28;20493;-59
2021/01/19 03:11:29;;;;;;;3.90;3.20;;;5.70;1.00;;;;;;5111823;28;20512;-60
2021/01/19 03:13:54;;;;;;;3.67;3.07;;;5.70;1.00;;;;;;5112963;28;20973;-59
2021/01/19 03:16:23;;;;;;;5.50;3.30;;;5.80;1.00;;;;;;5111985;28;20532;-59
2021/01/19 03:18:51;;;;;;;4.97;3.40;;;5.70;1.00;;;;;;5107751;28;20328;-59
2021/01/19 03:21:16;;;;;;;3.57;3.27;;;5.70;1.00;;;;;;5110500;28;20857;-59
2021/01/19 03:23:42;;;;;;;7.70;3.90;;;5.70;1.00;;;;;;5112445;28;20460;-59
2021/01/19 03:26:08;;;;;;;4.00;3.57;;;5.70;1.00;;;;;;5109994;28;20186;-58
2021/01/19 03:28:35;;;;;;;3.70;3.40;;;5.70;1.00;;;;;;5112449;28;20188;-58
2021/01/19 03:31:01;;;;;;;3.20;2.80;;;5.70;1.00;;;;;;5112369;28;20961;-59
2021/01/19 03:33:27;;;;;;;3.97;3.57;;;5.60;1.00;;;;;;5111887;28;20451;-58
2021/01/19 03:35:53;;;;;;;3.80;3.47;;;5.60;1.00;;;;;;5112180;28;20457;-59
2021/01/19 03:38:19;;;;;;;3.63;3.33;;;5.60;1.00;;;;;;5111082;28;20174;-59
2021/01/19 03:40:45;;;;;;;3.53;3.23;;;5.60;1.00;;;;;;5111844;28;20485;-60
2021/01/19 03:43:11;;;;;;;4.07;3.77;;;5.60;1.00;;;;;;5112017;28;20216;-59
2021/01/19 03:45:36;;;;;;;3.47;2.90;;;5.70;1.00;;;;;;5111671;28;20463;-59
2021/01/19 03:48:02;;;;;;;3.30;3.00;;;5.70;1.00;;;;;;5110147;28;20236;-59
2021/01/19 03:50:28;;;;;;;5.30;3.80;;;5.70;1.00;;;;;;5107285;28;20825;-59
2021/01/19 03:52:55;;;;;;;4.47;2.80;;;5.70;1.00;;;;;;5107709;28;20210;-60
2021/01/19 03:55:21;;;;;;;7.63;4.07;;;5.80;1.00;;;;;;5110822;27;20456;-60
2021/01/19 03:57:46;;;;;;;2.90;2.70;;;5.90;1.00;;;;;;5106764;28;20454;-59
2021/01/19 04:00:14;;;;;;;3.33;3.03;;;5.80;1.00;;;;;;5111760;28;20182;-59
2021/01/19 04:02:41;;;;;;;4.03;2.87;;;5.80;1.00;;;;;;5110354;28;20221;-61
2021/01/19 04:05:08;;;;;;;3.80;3.50;;;5.90;1.00;;;;;;5110388;28;20448;-60
2021/01/19 04:07:41;;;;;;;3.20;2.70;;;5.90;1.00;;;;;;5111771;28;20523;-58
2021/01/19 04:10:11;;;;;;;4.10;3.47;;;6.00;1.00;;;;;;5111060;28;20436;-59
2021/01/19 04:12:37;;;;;;;4.20;3.57;;;6.20;1.00;;;;;;5110250;28;20466;-60
2021/01/19 04:15:07;;;;;;;5.83;3.63;;;6.20;1.00;;;;;;5111187;28;20443;-59
2021/01/19 04:17:33;;;;;;;3.40;3.00;;;6.20;1.00;;;;;;5110974;28;20435;-60
2021/01/19 04:19:59;;;;;;;3.43;2.63;;;6.10;1.00;;;;;;5110996;27;20432;-60
2021/01/19 04:22:27;;;;;;;3.47;2.90;;;6.10;1.00;;;;;;5111569;28;20189;-60
2021/01/19 04:24:53;;;;;;;3.97;3.40;;;6.10;1.00;;;;;;5110603;28;20184;-60
2021/01/19 04:27:21;;;;;;;2.80;2.60;;;6.10;1.00;;;;;;5111555;28;21001;-58
2021/01/19 04:29:47;;;;;;;3.40;2.53;;;6.10;1.00;;;;;;5111301;28;20220;-59
2021/01/19 04:32:13;;;;;;;3.40;3.10;;;6.10;1.00;;;;;;5111084;28;21051;-59
2021/01/19 04:34:39;;;;;;;3.40;3.10;;;6.10;1.00;;;;;;5110167;28;20178;-59
2021/01/19 04:37:05;;;;;;;4.23;3.30;;;6.00;1.00;;;;;;5110801;28;20437;-59
2021/01/19 04:39:31;;;;;;;3.97;3.17;;;6.00;1.00;;;;;;5110689;28;20182;-59
2021/01/19 04:41:57;;;;;;;5.70;2.93;;;6.00;1.00;;;;;;5109638;28;20277;-60
2021/01/19 04:44:24;;;;;;;5.10;3.00;;;6.10;1.00;;;;;;5109451;28;20186;-59
2021/01/19 04:46:51;;;;;;;3.60;2.73;;;6.00;1.00;;;;;;5110182;28;20443;-60
2021/01/19 04:49:17;;;;;;;3.13;2.83;;;6.00;1.00;;;;;;5111039;28;20757;-60
2021/01/19 04:51:46;;;;;;;3.37;2.90;;;6.00;1.00;;;;;;5111246;28;20460;-59
2021/01/19 04:54:16;;;;;;;3.83;3.40;;;6.10;1.00;;;;;;5110673;28;20487;-59
2021/01/19 04:56:50;;;;;;;3.13;2.83;;;5.90;1.00;;;;;;5110380;28;20793;-59
2021/01/19 04:59:22;;;;;;;3.50;3.20;;;6.10;1.00;;;;;;5110529;28;20925;-58
2021/01/19 05:01:53;;;;;;;3.27;2.97;;;6.10;1.00;;;;;;5111111;28;20521;-61
2021/01/19 05:04:50;;;;;;;5.20;4.50;;;6.10;1.00;;;;;;5110640;28;20436;-62
2021/01/19 05:07:33;;;;;;;4.00;2.63;;;6.00;1.00;;;;;;5110997;28;20451;-62
2021/01/19 05:10:04;;;;;;;2.93;2.63;;;6.10;1.00;;;;;;5110583;28;20423;-63
2021/01/19 05:12:40;;;;;;;3.63;3.33;;;6.20;1.00;;;;;;5107766;28;20462;-61
2021/01/19 05:15:11;;;;;;;2.93;2.70;;;6.10;1.00;;;;;;5110939;28;20439;-62
2021/01/19 05:17:38;;;;;;;5.50;2.93;;;6.10;1.00;;;;;;5110647;28;20446;-59
2021/01/19 05:20:06;;;;;;;3.40;2.73;;;6.20;1.00;;;;;;5111057;28;20462;-60
2021/01/19 05:22:32;;;;;;;4.63;2.83;;;6.10;1.00;;;;;;5112117;28;20774;-60
2021/01/19 05:24:58;;;;;;;3.27;2.97;;;6.00;1.00;;;;;;5114555;28;20443;-60
2021/01/19 05:27:24;;;;;;;4.20;2.93;;;6.10;1.00;;;;;;5114735;28;20439;-59
2021/01/19 05:30:01;;;;;;;2.80;2.60;;;6.00;1.00;;;;;;5114805;28;20484;-59
2021/01/19 05:32:42;;;;;;;4.03;3.17;;;6.10;1.00;;;;;;5115940;27;20288;-59
2021/01/19 05:35:18;;;;;;;6.00;3.00;;;6.20;1.00;;;;;;5134956;27;20495;-59
2021/01/19 05:38:00;;;;;;;6.47;3.47;;;6.10;1.00;;;;;;5130224;27;20441;-59
2021/01/19 05:40:27;;;;;;;3.20;2.90;;;6.20;1.00;;;;;;5110157;27;20512;-58
2021/01/19 05:42:54;;;;;;;3.97;3.30;;;6.00;1.00;;;;;;5112651;28;20452;-58
2021/01/19 05:45:20;;;;;;;3.47;3.17;;;6.10;1.00;;;;;;5121909;27;20516;-58
2021/01/19 05:47:46;;;;;;;3.73;3.30;;;6.10;1.00;;;;;;5118385;27;20932;-59
2021/01/19 05:50:13;;;;;;;7.40;2.93;;;5.90;1.00;;;;;;5120782;27;20287;-59
2021/01/19 05:52:39;;;;;;;3.53;3.30;;;6.00;1.00;;;;;;5120534;27;20458;-59
2021/01/19 05:55:05;;;;;;;3.97;3.57;;;6.10;1.00;;;;;;5129367;27;20983;-59
2021/01/19 05:57:31;;;;;;;5.07;3.53;;;6.10;1.00;;;;;;5123422;27;20480;-59
2021/01/19 06:00:03;;;;;;;6.03;3.77;;;6.10;1.00;;;;;;5125219;27;20438;-59
2021/01/19 06:02:43;;;;;;;3.80;3.40;;;6.10;1.00;;;;;;5114565;27;20205;-59
2021/01/19 06:05:14;;;;;;;4.63;3.50;;;6.10;1.00;;;;;;5113721;28;20447;-59
2021/01/19 06:07:44;;;;;;;4.53;3.80;;;6.10;1.00;;;;;;5111089;28;20442;-60
2021/01/19 06:10:18;;;;;;;6.33;4.07;;;6.10;1.00;;;;;;5113877;28;20935;-60
2021/01/19 06:12:43;;;;;;;6.00;3.43;;;6.00;1.00;;;;;;5113124;27;20518;-61
2021/01/19 06:15:10;;;;;;;5.93;3.93;;;6.00;1.00;;;;;;5114110;28;20431;-61
2021/01/19 06:17:36;;;;;;;4.47;4.03;;;6.00;1.00;;;;;;5118730;27;20343;-59
2021/01/19 06:20:05;;;;;;;6.03;3.50;;;6.00;1.00;;;;;;5113364;27;20510;-61
2021/01/19 06:22:30;;;;;;;4.07;3.40;;;6.00;1.00;;;;;;5113648;28;20432;-61
2021/01/19 06:24:57;;;;;;;4.17;3.40;;;6.00;1.00;;;;;;5113299;28;20587;-60
2021/01/19 06:27:23;;;;;;;5.57;4.10;;;6.00;1.00;;;;;;5112662;28;20240;-60
2021/01/19 06:29:50;;;;;;;5.07;4.03;;;6.00;1.00;;;;;;5113174;28;20917;-61
2021/01/19 06:32:17;;;;;;;4.30;3.90;;;5.90;1.00;;;;;;5113087;27;20260;-60
2021/01/19 06:34:44;;;;;;;5.10;4.30;;;5.90;1.00;;;;;;5133752;27;20459;-60
2021/01/19 06:37:26;;;;;;;5.03;4.00;;;5.80;1.00;;;;;;5112951;27;21204;-59
2021/01/19 06:39:56;;;;;;;6.47;5.20;;;5.90;1.00;;;;;;5113288;28;20519;-61
2021/01/19 06:42:30;;;;;;;6.27;4.53;;;6.00;1.00;;;;;;5112188;27;20443;-60
2021/01/19 06:44:59;;;;;;;5.40;3.87;;;8.40;1.00;;;;;;5113442;28;20505;-60
2021/01/19 06:47:25;;;;;;;6.17;4.50;;;6.00;1.00;;;;;;5110719;28;20436;-61
2021/01/19 06:49:53;;;;;;;6.60;4.60;;;5.90;1.00;;;;;;5126056;27;20453;-60
2021/01/19 06:52:20;;;;;;;4.30;3.77;;;6.00;1.00;;;;;;5111997;27;20462;-61
2021/01/19 06:54:57;;;;;;;5.07;4.50;;;6.00;1.00;;;;;;5112899;28;20435;-61
2021/01/19 06:57:49;;;;;;;5.37;4.87;;;6.00;1.00;;;;;;5113211;28;20430;-61
2021/01/19 07:00:20;;;;;;;5.53;4.47;;;5.70;1.00;;;;;;5112824;28;20420;-61
2021/01/19 07:02:48;;;;;;;8.03;6.70;;;5.90;1.00;;;;;;5112282;28;20444;-60
2021/01/19 07:05:22;;;;;;;10.13;8.20;;;6.00;1.00;;;;;;5112445;28;20479;-61
2021/01/19 07:07:53;;;;;;;8.07;5.80;;;6.10;1.00;;;;;;5111152;28;20463;-61
2021/01/19 07:10:20;;;;;;;6.67;5.23;;;6.10;1.00;;;;;;5112455;28;20912;-61
2021/01/19 07:13:02;;;;;;;5.30;4.57;;;6.00;1.00;;;;;;5112538;28;20455;-61
2021/01/19 07:15:31;;;;;;;7.97;6.40;;;;;;;;;;5111425;28;20458;-60
2021/01/19 07:18:17;;;;;;;4.63;3.67;;;5.80;1.00;;;;;;5111099;28;20435;-61
2021/01/19 07:21:04;;;;;;;4.40;4.00;;;6.00;1.00;;;;;;5120655;27;20428;-61
2021/01/19 07:23:48;;;;;;;6.53;4.80;;;6.10;1.00;;;;;;5133041;27;20460;-59
2021/01/19 07:26:17;;;;;;;8.13;4.87;;;6.00;1.00;;;;;;5127550;27;20439;-61
2021/01/19 07:28:43;;;;;;;4.70;4.10;;;5.90;1.00;;;;;;5112306;28;20428;-61
2021/01/19 07:31:13;;;;;;;7.03;5.37;;;5.90;1.00;;;;;;5109998;28;20563;-62
2021/01/19 07:33:42;;;;;;;4.63;4.00;;;6.00;1.00;;;;;;5114888;27;20438;-60
2021/01/19 07:36:19;;;;;;;4.83;4.30;;;6.10;1.00;;;;;;5118656;27;20835;-60
2021/01/19 07:38:46;;;;;;;7.00;4.97;;;5.90;1.00;;;;;;5112162;27;20438;-60
2021/01/19 07:41:12;;;;;;;6.00;3.77;;;6.00;1.00;;;;;;5114681;27;20443;-61
2021/01/19 07:43:39;;;;;;;7.30;5.63;;;6.00;1.00;;;;;;5111924;28;20440;-60
2021/01/19 07:46:05;;;;;;;4.67;3.60;;;6.00;1.00;;;;;;5109490;28;20618;-60
2021/01/19 07:48:35;;;;;;;4.27;3.90;;;6.10;1.00;;;;;;5112748;27;20794;-60
2021/01/19 07:51:17;;;;;;;7.30;3.90;;;6.10;1.00;;;;;;5109313;28;20496;-60
2021/01/19 07:53:49;;;;;;;4.80;3.87;;;6.10;1.00;;;;;;5112029;28;20519;-59
2021/01/19 07:56:28;;;;;;;2.90;2.70;;;6.20;1.00;;;;;;5108974;28;20552;-61
2021/01/19 07:58:55;;;;;;;5.23;4.23;;;6.20;1.00;;;;;;5112216;27;20432;-60
2021/01/19 08:01:28;;;;;;;6.83;4.10;;;6.30;1.00;;;;;;5125088;27;20431;-61
2021/01/19 08:04:14;;;;;;;7.77;3.77;;;6.30;1.00;;;;;;5111888;28;20866;-60
2021/01/19 08:06:42;;;;;;;5.23;4.30;;;6.30;1.00;;;;;;5111984;28;20514;-59
2021/01/19 08:09:12;;;;;;;7.00;4.87;;;6.30;1.00;;;;;;5111075;28;20444;-59
2021/01/19 08:11:39;;;;;;;4.77;3.80;;;6.30;1.00;;;;;;5110235;28;20808;-60
2021/01/19 08:14:05;;;;;;;3.30;2.93;;;6.40;1.00;;;;;;5112117;28;20435;-60
2021/01/19 08:16:33;;;;;;;4.30;3.50;;;6.50;1.00;;;;;;5110417;28;20432;-60
2021/01/19 08:19:18;;;;;;;5.63;2.63;;;6.50;1.00;;;;;;5110368;28;20434;-59
2021/01/19 08:21:54;;;;;;;6.83;2.90;;;6.70;1.00;;;;;;5111440;28;21004;-58
2021/01/19 08:24:25;;;;;;;3.03;2.33;;;6.70;1.00;;;;;;5111157;28;20940;-60
2021/01/19 08:26:51;;;;;;;3.37;2.27;;;6.80;1.00;;;;;;5111260;28;20948;-60
2021/01/19 08:29:21;;;;;;;3.80;2.27;;;6.70;1.00;;;;;;5111298;28;20462;-61
2021/01/19 08:32:01;;;;;;;2.60;2.00;;;6.60;1.00;;;;;;5122363;27;20532;-63
2021/01/19 08:34:29;;;;;;;6.07;2.70;;;6.60;1.00;;;;;;5111964;28;20438;-62
2021/01/19 08:36:56;;;;;;;2.43;2.00;;;6.60;1.00;;;;;;5111839;28;20937;-62
2021/01/19 08:39:23;;;;;;;3.20;2.23;;;6.80;1.00;;;;;;5117403;28;20529;-61
2021/01/19 08:41:50;;;;;;;3.73;1.70;;;6.80;1.00;;;;;;5111819;28;20993;-63
2021/01/19 08:44:17;;;;;;;1.80;1.70;;;6.90;1.00;;;;;;5125444;28;20534;-61
2021/01/19 08:46:43;;;;;;;2.60;2.03;;;6.90;1.00;;;;;;5110475;28;20448;-63
2021/01/19 08:49:13;;;;;;;3.50;1.73;;;6.80;1.00;;;;;;5117494;28;20916;-62
2021/01/19 08:51:47;;;;;;;3.40;1.77;;;6.70;1.00;;;;;;5119928;28;20557;-63
2021/01/19 08:54:13;;;;;;;2.87;1.90;;;6.90;1.00;;;;;;5119892;27;20467;-63
2021/01/19 08:56:40;;;;;;;5.03;1.77;;;6.90;1.00;;;;;;5127450;27;20918;-62
2021/01/19 08:59:10;;;;;;;4.33;1.93;;;6.90;1.00;;;;;;5119929;27;20877;-62
2021/01/19 09:01:55;;;;;;;2.13;1.67;;;6.90;1.00;;;;;;5120512;27;20784;-62
2021/01/19 09:04:28;;;;;;;2.20;1.50;;;6.90;1.00;;;;;;5136919;27;20426;-63
2021/01/19 09:07:10;;;;;;;4.90;1.60;;;7.00;1.00;;;;;;5125775;27;20470;-62
2021/01/19 09:09:36;;;;;;;4.17;1.70;;;7.00;1.00;;;;;;5123927;27;20438;-62
2021/01/19 09:12:02;;;;;;;2.37;1.73;;;7.00;1.00;;;;;;5123035;27;20455;-63
2021/01/19 09:14:28;;;;;;;2.60;1.90;;;7.00;1.00;;;;;;5125302;27;20439;-63
2021/01/19 09:16:55;;;;;;;4.93;1.93;;;6.90;1.00;;;;;;5116093;27;20488;-63
2021/01/19 09:19:21;;;;;;;2.60;1.90;;;6.40;1.00;;;;;;5125970;27;20480;-62
2021/01/19 09:21:48;;;;;;;2.70;2.03;;;6.80;1.00;;;;;;5123735;27;20496;-62
2021/01/19 09:24:20;;;;;;;3.43;2.40;;;6.90;1.00;;;;;;5118723;27;20443;-64
2021/01/19 09:27:00;;;;;;;5.20;1.83;;;6.90;1.00;;;;;;5117257;27;20438;-62
2021/01/19 09:29:27;;;;;;;3.47;1.70;;;6.90;1.00;;;;;;5123687;27;20510;-62
2021/01/19 09:31:54;;;;;;;2.40;1.90;;;7.00;1.00;;;;;;5117699;27;20783;-62
2021/01/19 09:34:20;;;;;;;3.60;1.77;;;7.00;1.00;;;;;;5120582;27;20431;-61
2021/01/19 09:36:48;;;;;;;2.77;1.80;;;;;;;;;;5114836;28;20432;-63
2021/01/19 09:39:24;;;;;;;3.77;1.40;;;6.90;1.00;;;;;;5117527;27;20510;-63
2021/01/19 09:41:50;;;;;;;1.60;1.43;;;;;;;;;;5135186;27;20435;-63
2021/01/19 09:44:16;;;;;;;2.43;1.83;;;7.10;1.00;;;;;;5121892;27;20827;-64
2021/01/19 09:46:42;;;;;;;5.73;2.70;;;7.20;1.00;;;;;;5118019;27;20435;-63
2021/01/19 09:49:08;;;;;;;2.20;1.57;;;7.10;1.00;;;;;;5121690;27;20450;-62
2021/01/19 09:51:34;;;;;;;2.07;1.07;;;7.10;1.00;;;;;;5132406;27;20197;-63
2021/01/19 09:54:00;;;;;;;1.50;1.40;;;;;;;;;;5135077;27;20430;-63
2021/01/19 09:56:27;;;;;;;4.40;1.47;;;7.00;1.00;;;;;;5127475;27;20607;-62
2021/01/19 09:59:06;;;;;;;1.77;1.27;;;7.00;1.00;;;;;;5129752;27;20713;-63
2021/01/19 10:01:32;;;;;;;4.83;1.60;;;7.10;1.00;;;;;;5120973;27;20450;-63
2021/01/19 10:03:58;;;;;;;3.10;1.93;;;7.20;1.00;;;;;;5123092;27;20440;-62
2021/01/19 10:06:25;;;;;;;6.23;2.17;;;7.20;1.00;;;;;;5117418;27;20428;-62
2021/01/19 10:08:53;;;;;;;2.00;1.57;;;7.40;1.00;;;;;;5108571;28;20182;-66
2021/01/19 10:11:34;;;;;;;4.03;1.97;;;7.30;1.00;;;;;;5128686;27;20450;-64
2021/01/19 10:14:10;;;;;;;3.20;1.43;;;7.50;1.00;;;;;;5135512;27;20491;-59
2021/01/19 10:16:40;;;;;;;6.93;2.13;;;7.50;1.00;;;;;;5119132;27;20442;-59
2021/01/19 10:19:06;;;;;;;5.87;1.50;;;7.70;1.00;;;;;;5113641;28;20436;-62
2021/01/19 10:21:31;;;;;;;3.53;1.67;;;7.60;1.00;;;;;;5113647;28;20684;-62
2021/01/19 10:23:57;;;;;;;2.53;1.47;;;7.50;1.00;;;;;;5114100;28;20670;-64
2021/01/19 10:26:30;;;;;;;3.50;2.00;;;7.70;1.00;;;;;;5114367;27;20185;-63
2021/01/19 10:28:57;;;;;;;3.20;1.77;;;7.80;1.00;;;;;;5113985;28;20466;-63
2021/01/19 10:31:26;;;;;;;3.07;1.60;;;7.60;1.00;;;;;;5113359;28;20471;-62
2021/01/19 10:33:57;;;;;;;2.10;1.70;;;7.60;1.00;;;;;;5112933;27;20521;-63
2021/01/19 10:36:27;;;;;;;2.33;2.10;;;7.80;1.00;;;;;;5110152;28;20440;-62
2021/01/19 10:38:54;;;;;;;5.07;1.67;;;8.00;1.00;;;;;;5113785;28;20420;-62
2021/01/19 10:41:28;;;;;;;4.17;1.57;;;8.00;1.00;;;;;;5112473;28;20511;-62
2021/01/19 10:43:55;;;;;;;5.20;2.20;;;8.00;1.00;;;;;;5113378;28;20451;-62
2021/01/19 10:46:25;;;;;;;4.83;1.40;;;8.00;1.00;;;;;;5112152;28;20447;-62
2021/01/19 10:49:04;;;;;;;4.57;1.80;;;8.00;1.00;;;;;;5114736;27;20432;-62
2021/01/19 10:51:31;;;;;;;3.00;1.70;;;8.10;1.00;;;;;;5114892;27;20963;-63
2021/01/19 10:54:04;;;;;;;2.20;1.77;;;8.10;1.00;;;;;;5113268;27;20432;-58
2021/01/19 10:56:29;;;;;;;5.23;2.10;;;8.10;1.00;;;;;;5112810;28;20459;-59
2021/01/19 10:58:55;;;;;;;6.70;2.37;;;7.90;1.00;;;;;;5112788;28;20435;-60
2021/01/19 11:01:20;;;;;;;2.63;1.40;;;8.00;1.00;;;;;;5113130;28;20263;-62
2021/01/19 11:03:46;;;;;;;5.63;1.80;;;8.10;1.00;;;;;;5110651;28;20544;-60
2021/01/19 11:06:12;;;;;;;2.50;1.33;;;8.10;1.00;;;;;;5113063;28;20227;-62
2021/01/19 11:08:37;;;;;;;4.27;1.40;;;8.10;1.00;;;;;;5112284;28;20665;-60
2021/01/19 11:11:03;;;;;;;3.00;1.80;;;8.20;1.00;;;;;;5112759;28;20557;-59
2021/01/19 11:13:29;;;;;;;2.07;1.60;;;8.20;1.00;;;;;;5113252;28;20193;-59
2021/01/19 11:15:54;;;;;;;2.60;1.80;;;8.30;1.00;;;;;;5112327;28;20504;-61
2021/01/19 11:18:20;;;;;;;3.33;1.50;;;8.10;1.00;;;;;;5112922;28;20174;-59
2021/01/19 11:20:46;;;;;;;6.87;2.03;;;8.10;1.00;;;;;;5111685;28;20184;-60
2021/01/19 11:23:12;;;;;;;5.13;1.67;;;8.20;1.00;;;;;;5112537;28;20190;-59
2021/01/19 11:25:37;;;;;;;6.10;1.63;;;8.30;1.00;;;;;;5111583;28;20189;-61
2021/01/19 11:28:03;;;;;;;3.93;2.83;;;8.20;1.00;;;;;;5111700;28;20581;-59
2021/01/19 11:30:29;;;;;;;2.37;1.33;;;8.30;1.00;;;;;;5112408;28;20192;-60
2021/01/19 11:32:54;;;;;;;2.40;1.40;;;8.30;1.00;;;;;;5111795;28;20471;-59
2021/01/19 11:35:20;;;;;;;2.80;1.60;;;8.40;1.00;;;;;;5112399;28;20655;-61
2021/01/19 11:37:45;;;;;;;7.30;1.60;;;8.30;1.00;;;;;;5112431;28;20281;-59
2021/01/19 11:40:11;;;;;;;3.43;1.57;;;8.30;1.00;;;;;;5112400;28;20178;-60
2021/01/19 11:42:37;;;;;;;4.93;1.60;;;8.20;1.00;;;;;;5112386;28;20550;-60
2021/01/19 11:45:04;;;;;;;9.43;2.33;;;8.20;1.00;;;;;;5110467;28;20443;-60
2021/01/19 11:47:29;;;;;;;4.33;2.13;;;8.10;1.00;;;;;;5112464;28;20185;-60
2021/01/19 11:49:55;;;;;;;4.40;2.00;;;8.00;1.00;;;;;;5112248;28;20931;-58
2021/01/19 11:52:21;;;;;;;2.50;1.40;;;8.30;1.00;;;;;;5118191;27;20285;-58
2021/01/19 11:54:47;;;;;;;7.50;2.20;;;8.20;1.00;;;;;;5111850;28;20178;-58
2021/01/19 11:57:13;;;;;;;4.00;1.80;;;8.20;1.00;;;;;;5111859;28;20186;-59
2021/01/19 11:59:40;;;;;;;3.50;1.80;;;8.10;1.00;;;;;;5112129;28;20450;-59
2021/01/19 12:02:05;;;;;;;2.93;1.70;;;8.20;1.00;;;;;;5112025;28;20485;-58
2021/01/19 12:04:31;;;;;;;1.67;1.57;;;8.00;1.00;;;;;;5112410;28;20798;-59
2021/01/19 12:06:57;;;;;;;2.60;1.80;;;7.90;1.00;;;;;;5111915;28;20185;-57
2021/01/19 12:09:23;;;;;;;2.17;1.80;;;7.90;1.00;;;;;;5111079;28;20186;-59
2021/01/19 12:11:54;;;;;;;2.53;2.33;;;7.80;1.00;;;;;;5112299;28;20466;-60
2021/01/19 12:14:21;;;;;;;6.23;2.17;;;7.60;1.00;;;;;;5111989;28;20276;-59
2021/01/19 12:16:50;;;;;;;7.43;1.90;;;7.60;1.00;;;;;;5118724;27;20539;-58
2021/01/19 12:19:16;;;;;;;1.90;1.70;;;7.40;1.00;;;;;;5132370;27;20514;-59
2021/01/19 12:21:52;;;;;;;4.17;1.93;;;7.30;1.00;;;;;;5130717;27;20523;-59
2021/01/19 12:24:18;;;;;;;6.90;2.23;;;7.30;1.00;;;;;;5111912;28;20210;-59
2021/01/19 12:26:45;;;;;;;6.70;2.77;;;7.20;1.00;;;;;;5093797;28;20790;-60
2021/01/19 12:29:14;;;;;;;4.57;1.50;;;7.20;1.00;;;;;;5112183;28;20432;-59
2021/01/19 12:31:40;;;;;;;3.63;2.20;;;7.20;1.00;;;;;;5111218;28;20471;-60
2021/01/19 12:34:06;;;;;;;2.60;1.80;;;7.30;1.00;;;;;;5109178;28;20456;-59
2021/01/19 12:36:32;;;;;;;1.97;1.70;;;7.20;1.00;;;;;;5112766;28;20428;-58
2021/01/19 12:38:59;;;;;;;2.57;2.00;;;7.30;1.00;;;;;;5110570;28;20190;-60
2021/01/19 12:41:24;;;;;;;3.93;2.07;;;7.30;1.00;;;;;;5111045;28;20516;-61
2021/01/19 12:43:50;;;;;;;2.77;2.10;;;7.30;1.00;;;;;;5116102;28;20467;-61
2021/01/19 12:46:17;;;;;;;1.80;1.40;;;7.30;1.00;;;;;;5111274;28;20446;-60
2021/01/19 12:48:43;;;;;;;4.93;2.20;;;7.20;1.00;;;;;;5111546;28;20276;-61
2021/01/19 12:51:19;;;;;;;3.50;2.50;;;7.00;1.00;;;;;;5131190;27;20463;-60
2021/01/19 12:53:46;;;;;;;3.20;2.07;;;7.00;1.00;;;;;;5132084;27;20513;-60
2021/01/19 12:56:13;;;;;;;2.20;1.57;;;7.10;1.00;;;;;;5131906;27;20451;-60
2021/01/19 12:58:39;;;;;;;3.33;2.07;;;7.00;1.00;;;;;;5130442;28;20477;-59
2021/01/19 13:01:05;;;;;;;3.70;2.30;;;7.00;1.00;;;;;;5126381;27;20434;-60
2021/01/19 13:03:31;;;;;;;4.80;2.83;;;7.00;1.00;;;;;;5130593;27;20435;-59
2021/01/19 13:05:57;;;;;;;4.47;2.43;;;7.10;1.00;;;;;;5111259;28;20522;-59
2021/01/19 13:08:23;;;;;;;5.20;2.67;;;7.30;1.00;;;;;;5111287;28;20267;-61
2021/01/19 13:10:49;;;;;;;2.77;2.37;;;7.10;1.00;;;;;;5110672;28;20187;-65
2021/01/19 13:13:15;;;;;;;3.37;2.30;;;7.10;1.00;;;;;;5111294;28;20463;-61
2021/01/19 13:15:41;;;;;;;2.93;2.20;;;7.00;1.00;;;;;;5111025;28;20186;-60
2021/01/19 13:18:06;;;;;;;5.87;2.53;;;7.10;1.00;;;;;;5111197;28;20489;-59